Time;durP1;ratioP1;P1;durP2;ratioP2;P2;SDS_P1;SDS_P2;PMS_P1;PMS_P2;Temp;Humidity;BMP_temperature;BMP_pressure;BME280_temperature;BME280_humidity;BME280_pressure;Samples;Min_cycle;Max_cycle;Signal;HPM_P1;HPM_P2
2023/03/16 00:01:56;;;;;;;4.25;3.95;;;;;;;5.54;91.82;101700.19;5054438;28;20330;-74
2023/03/16 00:04:21;;;;;;;4.32;4.03;;;;;;;5.53;91.97;101696.75;5036816;28;20598;-74
2023/03/16 00:06:46;;;;;;;4.53;4.13;;;;;;;5.53;91.94;101691.53;5053974;28;20115;-74
2023/03/16 00:09:12;;;;;;;4.97;4.47;;;;;;;5.54;92.01;101689.81;5053939;28;20045;-74
2023/03/16 00:11:37;;;;;;;4.70;4.38;;;;;;;5.54;92.11;101684.59;5054000;28;20072;-74
2023/03/16 00:14:03;;;;;;;3.78;3.58;;;;;;;5.53;92.01;101681.16;5054536;28;20076;-74
2023/03/16 00:16:29;;;;;;;3.50;3.20;;;;;;;5.53;91.99;101682.88;5052455;28;20424;-74
2023/03/16 00:18:54;;;;;;;4.38;4.05;;;;;;;5.52;91.73;101684.59;5054677;28;20032;-74
2023/03/16 00:21:20;;;;;;;4.35;3.95;;;;;;;5.53;91.95;101685.47;5055635;28;20324;-74
2023/03/16 00:23:45;;;;;;;4.38;4.07;;;;;;;5.52;91.92;101673.34;5055495;28;20037;-74
2023/03/16 00:26:11;;;;;;;4.45;4.15;;;;;;;5.51;92.04;101680.31;5056282;28;20140;-74
2023/03/16 00:28:37;;;;;;;4.80;4.20;;;;;;;5.51;92.00;101677.72;5038557;28;20079;-74
2023/03/16 00:31:05;;;;;;;4.70;4.30;;;;;;;5.52;92.07;101675.97;5056637;28;20040;-74
2023/03/16 00:33:36;;;;;;;4.45;4.15;;;;;;;5.51;91.99;101662.13;5055293;28;20282;-74
2023/03/16 00:36:03;;;;;;;4.57;4.18;;;;;;;5.51;92.07;101651.72;5056536;28;20036;-74
2023/03/16 00:38:35;;;;;;;4.43;4.00;;;;;;;5.51;92.26;101654.31;5055777;28;20043;-74
2023/03/16 00:41:06;;;;;;;4.95;4.28;;;;;;;5.52;92.31;101652.56;5056435;28;20562;-74
2023/03/16 00:43:52;;;;;;;4.20;3.90;;;;;;;5.51;92.41;101649.13;5057508;28;20325;-74
2023/03/16 00:46:18;;;;;;;4.50;4.20;;;;;;;5.51;92.54;101638.72;5055605;28;20036;-74
2023/03/16 00:48:45;;;;;;;4.38;4.03;;;;;;;5.50;92.25;101644.78;5058202;28;20044;-74
2023/03/16 00:51:16;;;;;;;4.50;4.10;;;;;;;5.51;92.31;101653.44;5055958;28;20232;-74
2023/03/16 00:53:43;;;;;;;4.85;4.45;;;;;;;5.51;92.11;101645.63;5057651;28;20041;-74
2023/03/16 00:56:10;;;;;;;4.40;4.10;;;;;;;5.50;91.91;101634.41;5055831;28;20265;-74
2023/03/16 00:58:38;;;;;;;4.43;4.13;;;;;;;5.49;92.22;101630.06;5055559;28;20060;-74
2023/03/16 01:01:04;;;;;;;4.60;4.20;;;;;;;5.51;92.44;101630.06;5055373;28;20047;-74
2023/03/16 01:03:30;;;;;;;4.70;4.30;;;;;;;5.51;92.46;101627.44;5055466;28;20032;-74
2023/03/16 01:05:58;;;;;;;4.70;4.15;;;;;;;5.51;92.60;101619.66;5056383;28;20040;-74
2023/03/16 01:08:26;;;;;;;4.57;4.18;;;;;;;5.51;92.50;101622.25;5055211;28;20090;-74
2023/03/16 01:10:53;;;;;;;3.90;3.67;;;;;;;5.51;92.58;101622.25;5053842;28;20098;-74
2023/03/16 01:13:20;;;;;;;4.60;4.20;;;;;;;5.51;92.85;101617.06;5055147;28;20044;-74
2023/03/16 01:15:45;;;;;;;4.32;3.97;;;;;;;5.52;92.78;101618.78;5056070;28;20075;-74
2023/03/16 01:18:12;;;;;;;4.90;4.43;;;;;;;5.52;92.78;101616.19;5055730;28;20040;-74
2023/03/16 01:20:38;;;;;;;4.88;4.32;;;;;;;5.52;92.87;101617.06;5053271;28;20049;-74
2023/03/16 01:23:03;;;;;;;5.03;4.22;;;;;;;5.51;92.91;101612.75;5059512;28;20147;-74
2023/03/16 01:25:29;;;;;;;4.60;4.22;;;;;;;5.51;92.62;101597.16;5058762;28;20363;-74
2023/03/16 01:27:54;;;;;;;4.75;4.35;;;;;;;5.53;92.91;101608.41;5059727;28;20280;-74
2023/03/16 01:30:20;;;;;;;4.75;4.32;;;;;;;5.53;93.04;101594.53;5059246;28;20120;-74
2023/03/16 01:32:45;;;;;;;4.38;4.05;;;;;;;5.52;93.01;101601.47;5059741;28;20326;-74
2023/03/16 01:35:11;;;;;;;4.65;4.32;;;;;;;5.52;93.07;101593.66;5059686;28;20112;-74
2023/03/16 01:37:36;;;;;;;5.88;4.00;;;;;;;5.53;92.94;101592.81;5058940;28;20033;-74
2023/03/16 01:40:05;;;;;;;4.30;3.95;;;;;;;5.53;92.88;101587.63;5061257;28;20037;-74
2023/03/16 01:42:30;;;;;;;5.63;4.28;;;;;;;5.52;92.91;101585.88;5058813;28;20079;-74
2023/03/16 01:45:00;;;;;;;4.07;3.78;;;;;;;5.53;92.95;101587.63;5059396;28;20056;-74
2023/03/16 01:47:26;;;;;;;4.82;4.43;;;;;;;5.53;93.08;101584.13;5058475;28;20045;-74
2023/03/16 01:49:54;;;;;;;4.55;4.13;;;;;;;5.53;93.00;101590.22;5058890;28;20036;-74
2023/03/16 01:52:24;;;;;;;5.13;4.72;;;;;;;5.55;93.08;101582.41;5058386;28;20060;-74
2023/03/16 01:55:01;;;;;;;4.13;3.83;;;;;;;5.53;93.10;101572.03;5059340;28;20406;-74
2023/03/16 01:57:34;;;;;;;4.32;4.00;;;;;;;5.55;93.35;101575.47;5058670;28;20106;-74
2023/03/16 02:00:09;;;;;;;4.63;4.22;;;;;;;5.56;93.39;101565.94;5059278;28;20033;-74
2023/03/16 02:03:09;;;;;;;5.15;4.40;;;;;;;5.55;93.53;101567.66;4909292;28;20057;-71
2023/03/16 02:06:06;;;;;;;6.88;4.50;;;;;;;5.56;93.34;101566.78;5060231;28;20094;-74
2023/03/16 02:08:33;;;;;;;4.45;4.05;;;;;;;5.57;93.32;101565.06;5060155;28;20072;-74
2023/03/16 02:11:03;;;;;;;6.80;4.85;;;;;;;5.53;92.59;101559.03;5059883;28;20106;-74
2023/03/16 02:13:32;;;;;;;4.60;4.18;;;;;;;5.52;92.68;101552.09;5059567;28;20032;-74
2023/03/16 02:15:58;;;;;;;9.38;5.60;;;;;;;5.52;92.83;101549.50;5059848;28;20037;-74
2023/03/16 02:18:24;;;;;;;7.18;4.47;;;;;;;5.52;92.64;101549.50;5059951;28;20292;-74
2023/03/16 02:21:11;;;;;;;5.30;4.30;;;;;;;5.52;92.90;101544.31;5060990;28;20036;-74
2023/03/16 02:23:36;;;;;;;4.78;4.28;;;;;;;5.53;92.93;101543.44;5050247;28;20056;-74
2023/03/16 02:26:22;;;;;;;4.68;4.28;;;;;;;5.53;92.74;101538.25;5059354;28;20045;-74
2023/03/16 02:29:11;;;;;;;3.90;3.60;;;;;;;5.53;92.97;101527.84;5041161;28;20079;-74
2023/03/16 02:31:38;;;;;;;4.18;3.78;;;;;;;5.52;93.05;101526.13;5058822;28;20037;-74
2023/03/16 02:34:03;;;;;;;4.53;4.22;;;;;;;5.55;93.05;101525.25;5059365;28;20340;-74
2023/03/16 02:36:30;;;;;;;4.60;4.30;;;;;;;5.55;93.03;101530.44;5041692;28;20064;-74
2023/03/16 02:38:56;;;;;;;4.35;3.97;;;;;;;5.55;93.25;101523.50;5059180;28;20039;-74
2023/03/16 02:41:21;;;;;;;4.72;3.80;;;;;;;5.56;93.34;101521.75;5059330;28;20045;-74
2023/03/16 02:43:52;;;;;;;4.22;3.92;;;;;;;5.57;93.47;101526.09;5058813;28;20037;-74
2023/03/16 02:46:20;;;;;;;3.92;3.63;;;;;;;5.58;93.69;101522.59;5059363;28;20059;-74
2023/03/16 02:49:15;;;;;;;4.38;4.03;;;;;;;5.57;93.75;101526.94;5065840;28;20037;-74
2023/03/16 02:51:41;;;;;;;3.72;3.42;;;;;;;5.58;94.00;101527.78;5058459;28;20381;-74
2023/03/16 02:54:06;;;;;;;4.63;4.13;;;;;;;5.58;93.82;101525.19;5051041;28;20120;-74
2023/03/16 02:56:32;;;;;;;5.15;3.97;;;;;;;5.58;93.84;101527.78;5058451;28;20068;-74
2023/03/16 02:58:57;;;;;;;3.90;3.60;;;;;;;5.58;93.98;101520.88;5041682;28;20036;-74
2023/03/16 03:01:23;;;;;;;4.32;3.67;;;;;;;5.60;94.07;101520.00;5059461;28;20037;-74
2023/03/16 03:03:49;;;;;;;4.07;3.60;;;;;;;5.59;94.21;101516.53;5058451;28;20036;-74
2023/03/16 03:06:14;;;;;;;4.38;4.05;;;;;;;5.60;94.14;101514.78;5058439;28;20051;-74
2023/03/16 03:08:41;;;;;;;4.30;3.90;;;;;;;5.60;94.30;101512.19;5057281;28;20041;-74
2023/03/16 03:11:07;;;;;;;4.07;3.78;;;;;;;5.58;94.31;101505.28;5058899;28;20351;-74
2023/03/16 03:13:33;;;;;;;5.00;4.15;;;;;;;5.58;94.62;101500.09;5058147;28;20037;-74
2023/03/16 03:15:58;;;;;;;4.70;4.30;;;;;;;5.59;94.51;101498.34;5058710;28;20414;-74
2023/03/16 03:18:24;;;;;;;4.30;3.90;;;;;;;5.60;94.54;101501.81;5058681;28;20108;-74
2023/03/16 03:20:49;;;;;;;4.55;4.15;;;;;;;5.60;94.70;101497.44;5058456;28;20070;-74
2023/03/16 03:23:15;;;;;;;3.97;3.67;;;;;;;5.60;94.60;101491.41;5058597;28;20228;-74
2023/03/16 03:25:41;;;;;;;4.25;3.95;;;;;;;5.60;94.79;101483.59;5057940;28;20041;-74
2023/03/16 03:28:07;;;;;;;4.47;4.03;;;;;;;5.61;94.96;101493.16;5058492;28;20355;-74
2023/03/16 03:30:33;;;;;;;5.53;3.70;;;;;;;5.61;95.02;101490.53;5058288;28;20334;-74
2023/03/16 03:33:00;;;;;;;3.88;3.60;;;;;;;5.61;95.06;101483.59;5058783;28;20122;-71
2023/03/16 03:35:26;;;;;;;4.25;3.80;;;;;;;5.61;95.05;101482.75;5057911;28;20087;-71
2023/03/16 03:37:51;;;;;;;3.97;3.67;;;;;;;5.62;95.15;101487.06;5058256;28;20049;-71
2023/03/16 03:40:18;;;;;;;4.00;3.60;;;;;;;5.62;95.26;101481.84;5057111;28;20068;-71
2023/03/16 03:42:43;;;;;;;5.95;5.07;;;;;;;5.61;95.31;101481.00;5057688;28;20044;-71
2023/03/16 03:45:11;;;;;;;5.32;4.82;;;;;;;5.61;95.17;101472.34;5057572;28;20359;-71
2023/03/16 03:47:37;;;;;;;5.72;4.53;;;;;;;5.62;95.35;101474.06;5057235;28;20048;-71
2023/03/16 03:50:03;;;;;;;4.53;4.13;;;;;;;5.60;95.14;101470.63;5058230;28;20344;-71
2023/03/16 03:52:28;;;;;;;4.32;3.90;;;;;;;5.61;95.23;101477.56;5058067;28;20343;-72
2023/03/16 03:54:54;;;;;;;6.10;4.18;;;;;;;5.60;95.21;101476.66;5057384;28;20049;-72
2023/03/16 03:57:19;;;;;;;4.45;3.97;;;;;;;5.61;95.33;101467.16;5039910;28;20480;-72
2023/03/16 03:59:45;;;;;;;4.60;4.20;;;;;;;5.61;95.41;101470.59;5057202;28;20061;-72
2023/03/16 04:02:12;;;;;;;4.47;4.05;;;;;;;5.61;95.47;101470.59;5058005;28;20067;-72
2023/03/16 04:04:38;;;;;;;5.47;4.07;;;;;;;5.61;95.31;101465.41;5057068;28;20385;-72
2023/03/16 04:07:03;;;;;;;4.78;3.75;;;;;;;5.61;95.44;101465.41;5057769;28;20032;-72
2023/03/16 04:09:32;;;;;;;5.03;3.78;;;;;;;5.62;95.49;101469.75;5056943;28;20075;-72
2023/03/16 04:11:59;;;;;;;4.20;3.60;;;;;;;5.61;95.37;101462.81;5057569;28;20038;-72
2023/03/16 04:14:25;;;;;;;5.55;3.80;;;;;;;5.62;95.58;101455.88;5057479;28;20067;-72
2023/03/16 04:16:50;;;;;;;4.18;3.78;;;;;;;5.63;95.47;101461.06;5057289;28;20048;-72
2023/03/16 04:19:15;;;;;;;3.83;3.55;;;;;;;5.62;95.52;101456.75;5057676;28;20045;-72
2023/03/16 04:21:41;;;;;;;4.10;3.45;;;;;;;5.61;95.29;101456.75;5057291;28;20104;-72
2023/03/16 04:24:06;;;;;;;3.58;3.20;;;;;;;5.61;95.42;101459.38;5057751;28;20080;-72
2023/03/16 04:26:33;;;;;;;3.50;3.20;;;;;;;5.61;95.29;101461.97;5057004;28;20033;-72
2023/03/16 04:28:58;;;;;;;4.10;3.42;;;;;;;5.62;95.55;101451.56;5039760;28;20311;-72
2023/03/16 04:31:24;;;;;;;4.18;3.53;;;;;;;5.63;95.53;101448.06;5057457;28;20075;-72
2023/03/16 04:33:53;;;;;;;3.97;3.17;;;;;;;5.64;95.71;101451.50;5056404;28;20029;-72
2023/03/16 04:36:19;;;;;;;;;;;;;;;5.64;95.86;101446.31;5056119;28;20098;-71
2023/03/16 04:38:44;;;;;;;3.40;3.10;;;;;;;5.64;95.79;101431.59;5056605;28;19947;-71
2023/03/16 04:41:10;;;;;;;3.13;2.92;;;;;;;5.65;95.87;101437.66;5057128;28;20033;-71
2023/03/16 04:43:35;;;;;;;3.65;3.15;;;;;;;5.64;95.77;101439.41;5056362;28;20072;-71
2023/03/16 04:46:02;;;;;;;3.78;3.10;;;;;;;5.64;95.85;101431.59;5057295;28;20243;-71
2023/03/16 04:48:29;;;;;;;4.55;3.05;;;;;;;5.65;95.99;101437.66;5056409;28;20047;-71
2023/03/16 04:50:54;;;;;;;3.25;2.95;;;;;;;5.65;96.17;101422.06;5055327;28;20086;-72
2023/03/16 04:53:19;;;;;;;3.35;2.92;;;;;;;5.65;96.24;101429.88;5055579;28;20279;-72
2023/03/16 04:55:45;;;;;;;2.97;2.67;;;;;;;5.64;96.15;101421.22;5057459;28;20079;-72
2023/03/16 04:58:12;;;;;;;4.72;2.72;;;;;;;5.65;96.36;101414.28;5059818;28;20078;-72
2023/03/16 05:00:39;;;;;;;5.43;2.40;;;;;;;5.65;96.39;101414.28;5058865;28;20057;-72
2023/03/16 05:03:05;;;;;;;2.70;2.50;;;;;;;5.65;96.26;101416.88;5059939;28;20340;-72
2023/03/16 05:05:31;;;;;;;2.67;2.47;;;;;;;5.65;96.39;101411.66;5060730;28;20406;-72
2023/03/16 05:07:56;;;;;;;2.40;2.20;;;;;;;5.65;96.38;101414.28;5042595;28;20072;-72
2023/03/16 05:10:22;;;;;;;2.65;2.45;;;;;;;5.66;96.39;101408.22;5060875;28;20056;-72
2023/03/16 05:12:47;;;;;;;2.92;2.65;;;;;;;5.67;96.57;101417.72;5060167;28;20112;-72
2023/03/16 05:15:13;;;;;;;3.70;2.50;;;;;;;5.66;96.52;101405.59;5060870;28;20033;-72
2023/03/16 05:17:40;;;;;;;5.13;2.58;;;;;;;5.66;96.40;101409.06;5060899;28;20083;-72
2023/03/16 05:20:08;;;;;;;4.15;2.38;;;;;;;5.65;96.42;101396.06;5025353;28;20428;-72
2023/03/16 05:22:34;;;;;;;2.58;2.38;;;;;;;5.64;96.38;101399.53;5060549;28;20107;-72
2023/03/16 05:25:02;;;;;;;2.60;2.40;;;;;;;5.64;96.62;101392.63;5060277;28;20131;-72
2023/03/16 05:27:28;;;;;;;2.63;2.30;;;;;;;5.65;96.69;101396.94;5060768;28;20182;-72
2023/03/16 05:29:54;;;;;;;4.07;2.55;;;;;;;5.64;96.74;101390.03;5060483;28;20356;-72
2023/03/16 05:32:20;;;;;;;4.28;2.10;;;;;;;5.64;96.75;101396.94;5060524;28;20048;-72
2023/03/16 05:34:45;;;;;;;3.65;2.40;;;;;;;5.65;96.88;101385.69;5059905;28;20041;-72
2023/03/16 05:37:11;;;;;;;2.10;1.90;;;;;;;5.65;97.03;101391.72;5060606;28;20060;-72
2023/03/16 05:39:36;;;;;;;4.70;2.65;;;;;;;5.64;96.92;101387.44;5060201;28;20104;-72
2023/03/16 05:42:02;;;;;;;4.35;2.05;;;;;;;5.64;96.99;101391.75;5060529;28;20037;-72
2023/03/16 05:44:28;;;;;;;2.63;2.20;;;;;;;5.64;96.91;101389.16;5060134;28;20043;-72
2023/03/16 05:46:53;;;;;;;2.58;2.38;;;;;;;5.64;97.09;101386.53;5059956;28;20041;-72
2023/03/16 05:49:18;;;;;;;3.10;1.92;;;;;;;5.64;97.13;101378.75;5061076;28;20044;-72
2023/03/16 05:51:44;;;;;;;3.67;2.15;;;;;;;5.64;97.30;101387.44;5059309;28;20041;-72
2023/03/16 05:54:09;;;;;;;2.67;2.10;;;;;;;5.66;97.17;101390.03;5060514;28;20048;-72
2023/03/16 05:56:34;;;;;;;2.00;1.90;;;;;;;5.66;97.31;101382.22;5059653;28;20051;-72
2023/03/16 05:59:01;;;;;;;2.50;1.80;;;;;;;5.65;97.34;101383.09;5060554;28;20053;-72
2023/03/16 06:01:27;;;;;;;2.75;2.08;;;;;;;5.65;97.42;101386.53;5055241;28;20083;-72
2023/03/16 06:03:52;;;;;;;2.35;1.77;;;;;;;5.66;97.41;101387.41;5058910;28;20037;-72
2023/03/16 06:06:18;;;;;;;2.45;2.00;;;;;;;5.64;97.31;101378.75;5058622;28;20107;-72
2023/03/16 06:08:44;;;;;;;4.03;2.35;;;;;;;5.61;97.10;101384.84;5059108;28;20056;-72
2023/03/16 06:11:10;;;;;;;2.10;2.00;;;;;;;5.61;97.32;101379.66;5059658;28;20108;-72
2023/03/16 06:13:37;;;;;;;2.17;1.98;;;;;;;5.62;97.51;101370.13;5057581;28;20104;-72
2023/03/16 06:16:02;;;;;;;3.47;2.05;;;;;;;5.61;97.47;101364.06;5059141;28;20082;-72
2023/03/16 06:18:28;;;;;;;2.72;1.95;;;;;;;5.62;97.62;101365.81;5059013;28;20311;-72
2023/03/16 06:20:54;;;;;;;1.85;1.75;;;;;;;5.61;97.77;101366.66;5059004;28;20075;-72
2023/03/16 06:23:20;;;;;;;2.17;1.98;;;;;;;5.63;97.76;101380.50;5059620;28;20032;-72
2023/03/16 06:25:46;;;;;;;1.88;1.73;;;;;;;5.64;97.88;101364.03;5058404;28;20241;-72
2023/03/16 06:28:12;;;;;;;2.35;1.83;;;;;;;5.64;97.93;101369.25;5058205;28;20051;-72
2023/03/16 06:30:38;;;;;;;3.25;1.80;;;;;;;5.65;97.83;101365.75;5058127;28;20029;-72
2023/03/16 06:33:03;;;;;;;2.20;2.00;;;;;;;5.65;97.56;101360.53;5040899;28;20274;-72
2023/03/16 06:35:29;;;;;;;2.42;2.13;;;;;;;5.65;97.91;101357.09;5059037;28;20037;-72
2023/03/16 06:37:54;;;;;;;1.98;1.88;;;;;;;5.65;97.82;101346.69;5058116;28;20061;-72
2023/03/16 06:40:19;;;;;;;2.25;2.08;;;;;;;5.65;98.26;101344.09;5058694;28;20028;-72
2023/03/16 06:42:45;;;;;;;1.85;1.75;;;;;;;5.66;97.98;101338.91;5058418;28;20070;-72
2023/03/16 06:45:10;;;;;;;2.45;2.25;;;;;;;5.66;98.06;101336.28;5059239;28;20059;-72
2023/03/16 06:47:36;;;;;;;2.22;2.13;;;;;;;5.67;98.09;101327.59;5058571;28;20032;-72
2023/03/16 06:50:02;;;;;;;5.65;2.05;;;;;;;5.67;98.33;101337.16;5059378;28;20344;-72
2023/03/16 06:52:27;;;;;;;3.35;2.40;;;;;;;5.66;97.88;101336.28;5041685;28;20344;-72
2023/03/16 06:54:52;;;;;;;2.60;2.40;;;;;;;5.64;97.80;101339.78;5059314;28;20037;-72
2023/03/16 06:57:18;;;;;;;2.78;2.10;;;;;;;5.63;97.75;101335.47;5058848;28;20025;-72
2023/03/16 06:59:43;;;;;;;2.70;2.13;;;;;;;5.62;97.85;101332.03;5059145;28;20045;-72
2023/03/16 07:02:12;;;;;;;2.40;2.20;;;;;;;5.63;97.95;101341.53;5059468;28;20039;-72
2023/03/16 07:04:38;;;;;;;3.90;1.98;;;;;;;5.62;98.27;101329.44;5058751;28;20071;-72
2023/03/16 07:07:03;;;;;;;3.58;2.20;;;;;;;5.62;97.99;101328.53;5059366;28;20032;-72
2023/03/16 07:09:29;;;;;;;4.40;2.55;;;;;;;5.61;97.98;101327.69;5059145;28;20131;-72
2023/03/16 07:11:54;;;;;;;2.40;2.20;;;;;;;5.61;98.05;101325.09;5058274;28;20029;-72
2023/03/16 07:14:21;;;;;;;5.10;2.47;;;;;;;5.62;98.33;101333.75;5059236;28;20138;-72
2023/03/16 07:16:47;;;;;;;2.67;2.30;;;;;;;5.64;98.29;101329.38;5058607;28;20063;-72
2023/03/16 07:19:12;;;;;;;2.20;2.05;;;;;;;5.64;98.38;101325.06;5037808;28;20340;-72
2023/03/16 07:21:40;;;;;;;2.58;2.38;;;;;;;5.64;98.37;101322.47;5054608;28;20037;-72
2023/03/16 07:24:07;;;;;;;1.83;1.73;;;;;;;5.66;98.30;101317.25;5074448;28;20071;-72
2023/03/16 07:26:33;;;;;;;2.30;2.10;;;;;;;5.67;98.40;101321.56;5053527;28;20167;-72
2023/03/16 07:28:59;;;;;;;2.30;2.10;;;;;;;5.68;98.48;101334.53;5063947;28;20251;-72
2023/03/16 07:31:24;;;;;;;2.53;2.33;;;;;;;5.69;98.42;101322.38;5057348;28;20041;-72
2023/03/16 07:33:50;;;;;;;3.30;3.00;;;;;;;5.68;98.47;101337.13;5057483;28;20048;-72
2023/03/16 07:36:15;;;;;;;2.25;2.00;;;;;;;5.70;98.35;101337.13;5057965;28;20036;-72
2023/03/16 07:38:41;;;;;;;5.40;2.70;;;;;;;5.70;98.33;101327.56;5057837;28;20609;-72
2023/03/16 07:41:07;;;;;;;2.55;2.05;;;;;;;5.72;98.35;101330.16;5057160;28;20029;-72
2023/03/16 07:43:32;;;;;;;3.80;2.10;;;;;;;5.72;98.41;101333.59;5057906;28;20060;-72
2023/03/16 07:45:58;;;;;;;3.03;1.95;;;;;;;5.72;98.29;101330.16;5057328;28;20324;-72
2023/03/16 07:48:23;;;;;;;4.05;2.38;;;;;;;5.72;98.03;101340.56;5058165;28;20115;-72
2023/03/16 07:50:49;;;;;;;2.60;2.10;;;;;;;5.72;98.14;101330.16;5055078;28;20419;-72
2023/03/16 07:53:15;;;;;;;2.28;2.08;;;;;;;5.71;98.14;101331.91;5057659;28;20089;-72
2023/03/16 07:55:41;;;;;;;3.13;2.17;;;;;;;5.73;98.16;101337.94;5051790;28;20041;-72
2023/03/16 07:58:09;;;;;;;2.53;1.95;;;;;;;5.74;98.08;101333.59;5066941;28;20413;-72
2023/03/16 08:00:34;;;;;;;2.28;2.10;;;;;;;5.75;98.09;101332.72;5056351;28;20028;-71
2023/03/16 08:03:00;;;;;;;6.20;2.90;;;;;;;5.75;98.15;101333.59;5072540;28;20120;-71
2023/03/16 08:05:26;;;;;;;3.38;1.90;;;;;;;5.79;98.18;101342.19;5057705;28;20036;-71
2023/03/16 08:07:52;;;;;;;2.58;1.92;;;;;;;5.80;98.21;101327.44;5056537;28;20110;-71
2023/03/16 08:10:18;;;;;;;2.22;2.10;;;;;;;5.80;98.29;101335.25;5057508;28;20048;-71
2023/03/16 08:12:43;;;;;;;3.95;2.42;;;;;;;5.82;98.24;101331.78;5055548;28;20052;-71
2023/03/16 08:15:10;;;;;;;2.30;1.90;;;;;;;5.84;98.14;101334.31;5031847;28;20033;-71
2023/03/16 08:17:36;;;;;;;2.35;2.15;;;;;;;5.85;98.13;101336.91;5035191;28;20309;-71
2023/03/16 08:20:13;;;;;;;2.85;2.28;;;;;;;5.85;98.16;101338.66;5036489;28;20391;-72
2023/03/16 08:22:39;;;;;;;4.97;2.35;;;;;;;5.86;97.94;101332.59;5039517;28;20033;-72
2023/03/16 08:25:09;;;;;;;3.17;1.85;;;;;;;5.86;97.96;101332.59;5035422;28;20136;-72
2023/03/16 08:27:35;;;;;;;2.95;2.17;;;;;;;5.88;98.11;101330.81;5037734;28;20064;-72
2023/03/16 08:30:06;;;;;;;4.03;2.30;;;;;;;5.86;97.94;101323.03;5035578;28;20106;-72
2023/03/16 08:32:32;;;;;;;3.30;2.50;;;;;;;5.86;97.58;101322.19;5027969;28;20060;-72
2023/03/16 08:34:59;;;;;;;2.35;1.77;;;;;;;5.87;97.35;101319.53;5032303;28;20118;-72
2023/03/16 08:37:24;;;;;;;2.78;2.35;;;;;;;5.88;97.27;101318.69;5035128;28;20113;-72
2023/03/16 08:39:50;;;;;;;2.75;2.17;;;;;;;5.89;97.31;101319.53;5036893;28;20064;-72
2023/03/16 08:42:16;;;;;;;4.13;2.60;;;;;;;5.93;97.43;101321.19;5040351;28;20124;-72
2023/03/16 08:44:42;;;;;;;6.85;2.72;;;;;;;5.94;97.43;101321.19;5036536;28;20037;-72
2023/03/16 08:47:09;;;;;;;2.83;1.85;;;;;;;5.95;97.02;101322.94;5039817;28;20064;-72
2023/03/16 08:49:35;;;;;;;2.47;2.10;;;;;;;5.97;97.03;101322.94;5037525;28;20072;-71
2023/03/16 08:52:01;;;;;;;4.22;2.60;;;;;;;6.00;96.69;101314.22;5039443;28;20355;-71
2023/03/16 08:54:26;;;;;;;3.55;2.00;;;;;;;6.02;96.64;101317.66;5038475;28;20352;-71
2023/03/16 08:56:52;;;;;;;5.65;2.53;;;;;;;6.03;96.17;101311.59;5037739;28;20050;-71
2023/03/16 08:59:17;;;;;;;3.53;2.08;;;;;;;6.04;95.88;101306.38;5037564;28;20053;-71
2023/03/16 09:01:42;;;;;;;3.42;2.20;;;;;;;6.07;95.91;101306.31;5040137;28;20112;-71
2023/03/16 09:04:08;;;;;;;6.28;2.95;;;;;;;6.09;95.71;101306.28;5037827;28;20029;-72
2023/03/16 09:06:34;;;;;;;4.38;2.30;;;;;;;6.11;95.52;101312.31;5038889;28;20301;-72
2023/03/16 09:09:00;;;;;;;4.65;2.35;;;;;;;6.12;94.66;101301.91;5037290;28;20613;-72
2023/03/16 09:11:29;;;;;;;3.42;2.28;;;;;;;6.12;94.09;101291.50;5039368;28;20039;-72
2023/03/16 09:13:54;;;;;;;;;;;;;;;6.16;94.20;101292.31;5037987;28;20041;-72
2023/03/16 09:16:24;;;;;;;2.90;2.00;;;;;;;6.18;93.86;101290.53;5039811;28;20211;-72
2023/03/16 09:18:50;;;;;;;3.10;2.50;;;;;;;6.19;92.94;101286.22;5037283;28;20041;-72
2023/03/16 09:21:15;;;;;;;4.72;2.05;;;;;;;6.21;93.46;101290.50;5039976;28;20111;-72
2023/03/16 09:23:44;;;;;;;4.82;2.40;;;;;;;6.23;93.41;101299.13;5037265;28;20293;-72
2023/03/16 09:26:11;;;;;;;4.05;2.28;;;;;;;6.26;93.13;101296.50;5050264;28;20310;-72
2023/03/16 09:28:37;;;;;;;2.10;1.90;;;;;;;6.29;93.59;101293.88;5044785;28;20025;-72
2023/03/16 09:31:04;;;;;;;3.92;1.92;;;;;;;6.33;93.26;101300.72;5045877;28;20025;-72
2023/03/16 09:33:30;;;;;;;4.45;2.38;;;;;;;6.35;92.81;101290.31;5045440;28;20450;-72
2023/03/16 09:35:57;;;;;;;3.95;2.08;;;;;;;6.38;92.31;101292.84;5036811;28;20040;-71
2023/03/16 09:38:25;;;;;;;3.08;1.92;;;;;;;6.43;92.40;101290.16;5038831;28;20064;-72
2023/03/16 09:40:57;;;;;;;5.03;2.30;;;;;;;6.45;92.50;101286.66;5036977;28;20487;-72
2023/03/16 09:43:42;;;;;;;3.25;1.95;;;;;;;6.48;92.12;101284.00;5043091;28;20029;-72
2023/03/16 09:46:10;;;;;;;5.45;1.77;;;;;;;6.53;91.63;101286.50;5041531;28;20454;-72
2023/03/16 09:48:38;;;;;;;4.35;1.73;;;;;;;6.58;91.49;101281.25;5042706;28;20059;-71
2023/03/16 09:51:26;;;;;;;2.80;1.90;;;;;;;6.61;91.40;101279.44;5041027;28;20035;-71
2023/03/16 09:53:59;;;;;;;3.30;1.88;;;;;;;6.66;90.83;101280.22;5026631;28;20052;-71
2023/03/16 09:56:34;;;;;;;2.28;1.83;;;;;;;6.71;90.86;101287.94;5040115;28;20045;-71
2023/03/16 09:59:01;;;;;;;4.07;1.95;;;;;;;6.76;90.00;101282.66;5041942;28;20107;-71
2023/03/16 10:01:53;;;;;;;5.07;2.17;;;;;;;6.82;89.61;101287.75;5040331;28;20386;-72
2023/03/16 10:04:49;;;;;;;4.90;2.00;;;;;;;6.91;89.77;101285.88;5042863;28;20309;-71
2023/03/16 10:07:45;;;;;;;3.97;1.90;;;;;;;6.98;89.05;101285.75;5041190;28;20381;-71
2023/03/16 10:10:18;;;;;;;3.92;1.80;;;;;;;7.01;87.67;101273.53;5039705;28;20061;-71
2023/03/16 10:12:49;;;;;;;2.88;1.92;;;;;;;7.06;87.42;101276.91;5041244;28;20107;-71
2023/03/16 10:15:28;;;;;;;3.38;1.80;;;;;;;7.13;86.71;101284.59;5039786;28;20040;-71
2023/03/16 10:18:06;;;;;;;5.82;2.03;;;;;;;7.20;87.42;101270.56;5041054;28;20071;-71
2023/03/16 10:20:33;;;;;;;3.20;1.80;;;;;;;7.24;87.41;101273.09;5040764;28;20041;-71
2023/03/16 10:23:01;;;;;;;3.38;1.60;;;;;;;7.28;87.53;101277.34;5042682;28;20370;-71
2023/03/16 10:25:42;;;;;;;2.03;1.83;;;;;;;7.30;86.84;101264.28;5040151;28;20044;-71
2023/03/16 10:28:14;;;;;;;2.55;1.73;;;;;;;7.35;86.28;101265.06;5042830;28;20033;-71
2023/03/16 10:30:39;;;;;;;2.30;1.58;;;;;;;7.40;86.64;101262.34;5038369;28;20041;-71
2023/03/16 10:33:25;;;;;;;4.30;1.58;;;;;;;7.45;85.79;101260.50;5041874;28;20064;-71
2023/03/16 10:35:56;;;;;;;2.15;1.63;;;;;;;7.49;86.69;101262.16;5039671;28;20040;-71
2023/03/16 10:38:41;;;;;;;2.30;2.10;;;;;;;7.55;85.88;101255.94;5042177;28;20025;-71
2023/03/16 10:41:19;;;;;;;5.75;2.03;;;;;;;7.58;86.01;101253.28;5039567;28;20040;-71
2023/03/16 10:43:48;;;;;;;4.20;1.98;;;;;;;7.62;86.65;101240.16;5039518;28;20025;-71
2023/03/16 10:46:13;;;;;;;3.67;1.95;;;;;;;7.64;84.62;101233.16;5040516;28;20378;-71
2023/03/16 10:48:39;;;;;;;4.97;1.70;;;;;;;7.67;83.71;101227.84;5040935;28;20040;-71
2023/03/16 10:51:11;;;;;;;1.70;1.55;;;;;;;7.72;84.90;101227.75;5041143;28;20041;-71
2023/03/16 10:53:41;;;;;;;7.72;2.45;;;;;;;7.75;85.18;101224.22;5038651;28;20329;-71
2023/03/16 10:56:18;;;;;;;2.03;1.70;;;;;;;7.78;84.59;101221.56;5042263;28;20329;-71
2023/03/16 10:58:45;;;;;;;3.45;2.05;;;;;;;7.80;82.65;101207.56;5038459;28;20087;-71
2023/03/16 11:01:27;;;;;;;2.05;1.73;;;;;;;7.83;84.40;101217.94;5040121;28;20919;-71
2023/03/16 11:03:56;;;;;;;2.20;1.63;;;;;;;7.86;83.28;101217.03;5039810;28;20596;-71
2023/03/16 11:06:25;;;;;;;4.03;1.83;;;;;;;7.89;83.77;101219.53;5042116;28;20316;-71
2023/03/16 11:08:52;;;;;;;4.43;1.77;;;;;;;7.91;83.82;101220.38;5038390;28;20060;-71
2023/03/16 11:11:31;;;;;;;7.18;1.58;;;;;;;7.93;82.64;101210.78;5042164;28;20125;-71
2023/03/16 11:13:58;;;;;;;3.13;1.90;;;;;;;7.97;82.68;101211.56;5039394;28;20389;-71
2023/03/16 11:16:42;;;;;;;3.40;1.98;;;;;;;8.00;83.48;101214.94;5042976;28;20426;-72
2023/03/16 11:19:20;;;;;;;3.15;1.55;;;;;;;8.02;83.16;101205.34;5040232;28;20032;-71
2023/03/16 11:22:01;;;;;;;6.53;2.35;;;;;;;8.07;82.75;101213.03;5040895;28;20035;-71
2023/03/16 11:24:44;;;;;;;3.92;2.05;;;;;;;8.11;83.10;101203.38;5038724;28;20115;-71
2023/03/16 11:27:39;;;;;;;4.93;1.60;;;;;;;8.13;82.35;101196.38;5040768;28;20224;-71
2023/03/16 11:30:08;;;;;;;3.83;1.40;;;;;;;8.14;80.68;101203.31;5041199;28;20295;-71
2023/03/16 11:32:36;;;;;;;2.45;1.45;;;;;;;8.16;81.46;101197.16;5039561;28;20168;-71
2023/03/16 11:35:12;;;;;;;4.75;1.60;;;;;;;8.18;81.98;101197.97;5041868;28;20368;-71
2023/03/16 11:38:04;;;;;;;2.83;1.50;;;;;;;8.22;81.47;101190.94;5039020;28;20352;-71
2023/03/16 11:40:37;;;;;;;6.45;2.08;;;;;;;8.26;81.12;101187.38;5037120;28;20052;-71